Search for airport 
image banner adimage banner adimage banner ad
image banner ad

1CA9 - Los Angeles County Fire Department

Located in Thousand Oaks, United States

ICAO - 1CA9, IATA -

Data provided by Airmate  

General information

Coordinates: N34°5'1" W118°51'48"
Elevation is 1360 feet MSL.
Magnetic variation is 14° East
View others Airports in California

Operational data

Special qualification required
Current time UTC:
Current local time:
METAR: KNTD 221352Z 30005KT 10SM OVC008 16/13 A2994 RMK AO2 CIG 007V011 SLP140 T01610133 CHINO N VISNO N $
TAF: TAF KNTD 2207/2307 VRB06KT 9999 OVC010 QNH2994INS TEMPO 2207/2209 OVC008 FM220900 VRB06KT 8000 BR OVC008 QNH2993INS BECMG 2217/2218 26008KT 9999 NSW BKN012 BKN150 QNH2991INS FM222000 27011KT 9999 SCT015 SCT150 QNH2987INS FM230500 VRB06KT 9999 BKN012 BKN150 QNH2989INS AUTOMATED SENSOR METWATCH 2207 TIL 2213 T14/2213Z T20/2222Z FS30163
View NOTAMs / SUP AIP / TFR affecting this airport [VIEW]
Communications frequencies: [VIEW]

Runways:

Airport contact information

Address: Thousand Oaks United States

Satellite view of 1CA9